sensor_id;sensor_type;location;lat;lon;timestamp;P1;durP1;ratioP1;P2;durP2;ratioP2
23590;SDS011;11973;52.098;7.582;2023-04-24T03:47:41;12.13;;;11.15;;
23590;SDS011;11973;52.098;7.582;2023-04-24T03:50:07;12.18;;;11.27;;
23590;SDS011;11973;52.098;7.582;2023-04-24T03:52:34;12.02;;;11.13;;
23590;SDS011;11973;52.098;7.582;2023-04-24T03:55:00;12.68;;;11.88;;
23590;SDS011;11973;52.098;7.582;2023-04-24T03:57:28;13.90;;;12.90;;
23590;SDS011;11973;52.098;7.582;2023-04-24T04:00:06;13.77;;;12.48;;
23590;SDS011;11973;52.098;7.582;2023-04-24T04:02:39;14.95;;;13.77;;
23590;SDS011;11973;52.098;7.582;2023-04-24T04:05:07;14.73;;;13.63;;
23590;SDS011;11973;52.098;7.582;2023-04-24T04:07:33;15.10;;;13.90;;
23590;SDS011;11973;52.098;7.582;2023-04-24T04:09:59;15.80;;;14.50;;
23590;SDS011;11973;52.098;7.582;2023-04-24T04:12:25;16.23;;;14.52;;
23590;SDS011;11973;52.098;7.582;2023-04-24T04:14:50;16.27;;;14.88;;
23590;SDS011;11973;52.098;7.582;2023-04-24T04:17:16;15.30;;;14.20;;
23590;SDS011;11973;52.098;7.582;2023-04-24T04:19:43;15.65;;;14.45;;
23590;SDS011;11973;52.098;7.582;2023-04-24T04:22:09;16.38;;;15.07;;
23590;SDS011;11973;52.098;7.582;2023-04-24T04:24:44;16.33;;;14.93;;
23590;SDS011;11973;52.098;7.582;2023-04-24T04:27:11;16.10;;;14.80;;
23590;SDS011;11973;52.098;7.582;2023-04-24T04:29:46;16.17;;;14.82;;
23590;SDS011;11973;52.098;7.582;2023-04-24T04:32:13;16.42;;;15.02;;
23590;SDS011;11973;52.098;7.582;2023-04-24T04:34:40;15.48;;;14.30;;
23590;SDS011;11973;52.098;7.582;2023-04-24T04:37:10;16.38;;;14.98;;
23590;SDS011;11973;52.098;7.582;2023-04-24T04:39:51;15.93;;;14.75;;
23590;SDS011;11973;52.098;7.582;2023-04-24T04:42:22;17.23;;;15.82;;
23590;SDS011;11973;52.098;7.582;2023-04-24T04:44:49;16.55;;;15.00;;
23590;SDS011;11973;52.098;7.582;2023-04-24T04:47:18;16.45;;;15.05;;
23590;SDS011;11973;52.098;7.582;2023-04-24T04:49:49;16.52;;;15.05;;
23590;SDS011;11973;52.098;7.582;2023-04-24T04:52:20;14.98;;;13.57;;
23590;SDS011;11973;52.098;7.582;2023-04-24T04:54:53;15.80;;;13.98;;
23590;SDS011;11973;52.098;7.582;2023-04-24T04:57:20;15.55;;;14.32;;
23590;SDS011;11973;52.098;7.582;2023-04-24T04:59:46;15.70;;;14.32;;
23590;SDS011;11973;52.098;7.582;2023-04-24T05:02:20;16.77;;;15.23;;
23590;SDS011;11973;52.098;7.582;2023-04-24T05:04:46;16.15;;;14.70;;
23590;SDS011;11973;52.098;7.582;2023-04-24T05:07:12;17.52;;;15.85;;
23590;SDS011;11973;52.098;7.582;2023-04-24T05:09:43;17.95;;;16.42;;
23590;SDS011;11973;52.098;7.582;2023-04-24T05:12:10;18.35;;;16.63;;
23590;SDS011;11973;52.098;7.582;2023-04-24T05:14:42;19.95;;;17.85;;
23590;SDS011;11973;52.098;7.582;2023-04-24T05:17:10;19.95;;;17.95;;
23590;SDS011;11973;52.098;7.582;2023-04-24T05:19:36;20.70;;;18.50;;
23590;SDS011;11973;52.098;7.582;2023-04-24T05:22:04;19.17;;;17.35;;
23590;SDS011;11973;52.098;7.582;2023-04-24T05:24:34;19.85;;;18.10;;
23590;SDS011;11973;52.098;7.582;2023-04-24T05:27:24;20.75;;;18.58;;
23590;SDS011;11973;52.098;7.582;2023-04-24T05:29:50;21.40;;;19.20;;
23590;SDS011;11973;52.098;7.582;2023-04-24T05:32:17;21.35;;;19.15;;
23590;SDS011;11973;52.098;7.582;2023-04-24T05:34:43;19.70;;;17.65;;
23590;SDS011;11973;52.098;7.582;2023-04-24T05:37:09;20.13;;;18.05;;
23590;SDS011;11973;52.098;7.582;2023-04-24T05:39:35;19.58;;;17.60;;
23590;SDS011;11973;52.098;7.582;2023-04-24T05:42:01;21.05;;;18.95;;
23590;SDS011;11973;52.098;7.582;2023-04-24T05:44:29;19.92;;;18.02;;
23590;SDS011;11973;52.098;7.582;2023-04-24T05:46:55;22.58;;;18.75;;
23590;SDS011;11973;52.098;7.582;2023-04-24T05:49:22;19.98;;;17.92;;
23590;SDS011;11973;52.098;7.582;2023-04-24T05:51:49;22.35;;;19.25;;
23590;SDS011;11973;52.098;7.582;2023-04-24T05:54:16;19.60;;;17.63;;
23590;SDS011;11973;52.098;7.582;2023-04-24T05:56:42;21.58;;;17.77;;
23590;SDS011;11973;52.098;7.582;2023-04-24T05:59:10;20.00;;;18.02;;
23590;SDS011;11973;52.098;7.582;2023-04-24T06:01:36;19.27;;;17.58;;
23590;SDS011;11973;52.098;7.582;2023-04-24T06:04:08;20.42;;;18.33;;
23590;SDS011;11973;52.098;7.582;2023-04-24T06:06:34;20.13;;;17.88;;
23590;SDS011;11973;52.098;7.582;2023-04-24T06:09:02;19.55;;;17.65;;
23590;SDS011;11973;52.098;7.582;2023-04-24T06:11:28;19.75;;;17.85;;
23590;SDS011;11973;52.098;7.582;2023-04-24T06:13:55;19.27;;;17.58;;
23590;SDS011;11973;52.098;7.582;2023-04-24T06:16:43;19.15;;;17.23;;
23590;SDS011;11973;52.098;7.582;2023-04-24T06:19:30;20.17;;;18.17;;
23590;SDS011;11973;52.098;7.582;2023-04-24T06:21:55;19.45;;;17.55;;
23590;SDS011;11973;52.098;7.582;2023-04-24T06:24:21;19.77;;;16.73;;
23590;SDS011;11973;52.098;7.582;2023-04-24T06:26:47;17.05;;;15.65;;
23590;SDS011;11973;52.098;7.582;2023-04-24T06:29:12;18.30;;;16.48;;
23590;SDS011;11973;52.098;7.582;2023-04-24T06:31:38;17.75;;;16.00;;
23590;SDS011;11973;52.098;7.582;2023-04-24T06:34:04;17.55;;;15.93;;
23590;SDS011;11973;52.098;7.582;2023-04-24T06:36:31;18.10;;;16.52;;
23590;SDS011;11973;52.098;7.582;2023-04-24T06:38:59;17.63;;;15.82;;
23590;SDS011;11973;52.098;7.582;2023-04-24T06:41:25;17.70;;;15.90;;
23590;SDS011;11973;52.098;7.582;2023-04-24T06:43:51;16.60;;;15.13;;
23590;SDS011;11973;52.098;7.582;2023-04-24T06:46:17;15.75;;;14.50;;
23590;SDS011;11973;52.098;7.582;2023-04-24T06:48:43;16.10;;;14.70;;
23590;SDS011;11973;52.098;7.582;2023-04-24T06:51:08;15.45;;;14.15;;
23590;SDS011;11973;52.098;7.582;2023-04-24T06:53:35;14.70;;;13.55;;
23590;SDS011;11973;52.098;7.582;2023-04-24T06:56:00;14.68;;;13.40;;
23590;SDS011;11973;52.098;7.582;2023-04-24T06:58:26;13.77;;;12.57;;
23590;SDS011;11973;52.098;7.582;2023-04-24T07:00:52;12.40;;;11.50;;
23590;SDS011;11973;52.098;7.582;2023-04-24T07:03:17;11.82;;;11.00;;
23590;SDS011;11973;52.098;7.582;2023-04-24T07:05:43;12.00;;;11.10;;
23590;SDS011;11973;52.098;7.582;2023-04-24T07:08:09;11.40;;;10.48;;
23590;SDS011;11973;52.098;7.582;2023-04-24T07:10:36;10.23;;;9.63;;
23590;SDS011;11973;52.098;7.582;2023-04-24T07:13:02;12.23;;;11.40;;
23590;SDS011;11973;52.098;7.582;2023-04-24T07:15:27;12.73;;;11.93;;
23590;SDS011;11973;52.098;7.582;2023-04-24T07:17:53;13.60;;;12.70;;
23590;SDS011;11973;52.098;7.582;2023-04-24T07:20:19;12.75;;;11.95;;
23590;SDS011;11973;52.098;7.582;2023-04-24T07:22:45;13.35;;;12.23;;
23590;SDS011;11973;52.098;7.582;2023-04-24T07:25:11;12.90;;;12.00;;
23590;SDS011;11973;52.098;7.582;2023-04-24T07:27:36;12.68;;;11.98;;
23590;SDS011;11973;52.098;7.582;2023-04-24T07:30:03;13.80;;;12.80;;
23590;SDS011;11973;52.098;7.582;2023-04-24T07:32:29;14.10;;;13.05;;
23590;SDS011;11973;52.098;7.582;2023-04-24T07:34:55;13.27;;;12.35;;
23590;SDS011;11973;52.098;7.582;2023-04-24T07:37:21;13.38;;;12.63;;
23590;SDS011;11973;52.098;7.582;2023-04-24T07:39:47;14.32;;;13.35;;
23590;SDS011;11973;52.098;7.582;2023-04-24T07:42:13;13.73;;;12.73;;
23590;SDS011;11973;52.098;7.582;2023-04-24T07:44:39;11.65;;;11.02;;
23590;SDS011;11973;52.098;7.582;2023-04-24T07:47:05;11.65;;;10.98;;
23590;SDS011;11973;52.098;7.582;2023-04-24T07:49:31;12.90;;;12.20;;
23590;SDS011;11973;52.098;7.582;2023-04-24T07:51:59;11.88;;;11.15;;
23590;SDS011;11973;52.098;7.582;2023-04-24T07:54:26;10.73;;;10.23;;
23590;SDS011;11973;52.098;7.582;2023-04-24T07:56:56;10.85;;;10.25;;
23590;SDS011;11973;52.098;7.582;2023-04-24T07:59:21;10.95;;;10.45;;
23590;SDS011;11973;52.098;7.582;2023-04-24T08:01:47;11.00;;;10.40;;
23590;SDS011;11973;52.098;7.582;2023-04-24T08:04:14;11.63;;;10.63;;
23590;SDS011;11973;52.098;7.582;2023-04-24T08:06:40;11.55;;;10.85;;
23590;SDS011;11973;52.098;7.582;2023-04-24T08:09:05;11.45;;;10.85;;
23590;SDS011;11973;52.098;7.582;2023-04-24T08:11:31;10.35;;;9.88;;
23590;SDS011;11973;52.098;7.582;2023-04-24T08:13:57;10.57;;;10.13;;
23590;SDS011;11973;52.098;7.582;2023-04-24T08:16:23;8.63;;;8.32;;
23590;SDS011;11973;52.098;7.582;2023-04-24T08:18:49;8.80;;;8.60;;
23590;SDS011;11973;52.098;7.582;2023-04-24T08:21:15;8.65;;;8.35;;
23590;SDS011;11973;52.098;7.582;2023-04-24T08:23:43;8.20;;;7.95;;
23590;SDS011;11973;52.098;7.582;2023-04-24T08:26:11;8.70;;;8.50;;
23590;SDS011;11973;52.098;7.582;2023-04-24T08:28:37;8.40;;;8.20;;
23590;SDS011;11973;52.098;7.582;2023-04-24T08:31:03;8.38;;;8.10;;
23590;SDS011;11973;52.098;7.582;2023-04-24T08:33:28;8.43;;;7.93;;
23590;SDS011;11973;52.098;7.582;2023-04-24T08:36:05;7.55;;;7.45;;
23590;SDS011;11973;52.098;7.582;2023-04-24T08:38:32;8.10;;;8.00;;
23590;SDS011;11973;52.098;7.582;2023-04-24T08:40:59;9.40;;;9.05;;
23590;SDS011;11973;52.098;7.582;2023-04-24T08:43:26;10.15;;;9.75;;
23590;SDS011;11973;52.098;7.582;2023-04-24T08:45:52;9.05;;;8.75;;
23590;SDS011;11973;52.098;7.582;2023-04-24T08:48:24;9.48;;;9.18;;
23590;SDS011;11973;52.098;7.582;2023-04-24T08:50:51;9.73;;;9.32;;
23590;SDS011;11973;52.098;7.582;2023-04-24T08:53:17;8.30;;;8.10;;
23590;SDS011;11973;52.098;7.582;2023-04-24T08:55:46;8.20;;;8.00;;
23590;SDS011;11973;52.098;7.582;2023-04-24T08:58:13;8.35;;;8.15;;
23590;SDS011;11973;52.098;7.582;2023-04-24T09:00:41;7.85;;;7.57;;
23590;SDS011;11973;52.098;7.582;2023-04-24T09:03:12;6.57;;;6.47;;
23590;SDS011;11973;52.098;7.582;2023-04-24T09:05:42;6.43;;;6.22;;
23590;SDS011;11973;52.098;7.582;2023-04-24T09:08:11;5.90;;;5.80;;
23590;SDS011;11973;52.098;7.582;2023-04-24T09:10:39;5.50;;;5.40;;
23590;SDS011;11973;52.098;7.582;2023-04-24T09:13:05;5.55;;;5.45;;
23590;SDS011;11973;52.098;7.582;2023-04-24T09:15:34;6.35;;;6.25;;
23590;SDS011;11973;52.098;7.582;2023-04-24T09:18:00;6.35;;;6.25;;
23590;SDS011;11973;52.098;7.582;2023-04-24T09:20:26;5.28;;;5.13;;
23590;SDS011;11973;52.098;7.582;2023-04-24T09:22:56;5.13;;;5.03;;
23590;SDS011;11973;52.098;7.582;2023-04-24T09:25:23;4.90;;;4.80;;
23590;SDS011;11973;52.098;7.582;2023-04-24T09:27:59;4.03;;;3.95;;
23590;SDS011;11973;52.098;7.582;2023-04-24T09:30:27;3.80;;;3.80;;
23590;SDS011;11973;52.098;7.582;2023-04-24T09:33:12;3.65;;;3.65;;
23590;SDS011;11973;52.098;7.582;2023-04-24T09:35:48;3.08;;;3.08;;
23590;SDS011;11973;52.098;7.582;2023-04-24T09:38:15;3.80;;;3.78;;
23590;SDS011;11973;52.098;7.582;2023-04-24T09:40:40;3.80;;;3.80;;
23590;SDS011;11973;52.098;7.582;2023-04-24T09:43:09;4.03;;;4.03;;
23590;SDS011;11973;52.098;7.582;2023-04-24T09:45:36;4.55;;;4.55;;
23590;SDS011;11973;52.098;7.582;2023-04-24T09:48:03;3.85;;;3.78;;
23590;SDS011;11973;52.098;7.582;2023-04-24T09:50:31;3.95;;;3.95;;
23590;SDS011;11973;52.098;7.582;2023-04-24T09:53:01;3.80;;;3.80;;
23590;SDS011;11973;52.098;7.582;2023-04-24T09:55:28;4.57;;;4.47;;
23590;SDS011;11973;52.098;7.582;2023-04-24T09:57:55;5.25;;;5.07;;
23590;SDS011;11973;52.098;7.582;2023-04-24T10:02:50;4.70;;;4.50;;
23590;SDS011;11973;52.098;7.582;2023-04-24T10:05:22;5.35;;;5.15;;
23590;SDS011;11973;52.098;7.582;2023-04-24T10:07:49;5.30;;;5.20;;
23590;SDS011;11973;52.098;7.582;2023-04-24T10:10:15;5.50;;;5.40;;
23590;SDS011;11973;52.098;7.582;2023-04-24T10:12:41;4.65;;;4.55;;
23590;SDS011;11973;52.098;7.582;2023-04-24T10:15:09;4.70;;;4.40;;
23590;SDS011;11973;52.098;7.582;2023-04-24T10:17:38;3.97;;;3.97;;
23590;SDS011;11973;52.098;7.582;2023-04-24T10:20:05;3.90;;;3.90;;
23590;SDS011;11973;52.098;7.582;2023-04-24T10:22:32;3.58;;;3.58;;
23590;SDS011;11973;52.098;7.582;2023-04-24T10:24:58;4.28;;;4.28;;
23590;SDS011;11973;52.098;7.582;2023-04-24T10:27:25;4.10;;;4.00;;
23590;SDS011;11973;52.098;7.582;2023-04-24T10:29:52;4.55;;;4.45;;
23590;SDS011;11973;52.098;7.582;2023-04-24T10:32:18;4.32;;;4.15;;
23590;SDS011;11973;52.098;7.582;2023-04-24T10:34:44;4.15;;;4.05;;
23590;SDS011;11973;52.098;7.582;2023-04-24T10:37:10;4.55;;;4.45;;
23590;SDS011;11973;52.098;7.582;2023-04-24T10:39:36;3.72;;;3.72;;
23590;SDS011;11973;52.098;7.582;2023-04-24T10:42:13;4.50;;;4.20;;
23590;SDS011;11973;52.098;7.582;2023-04-24T10:44:42;3.83;;;3.72;;
23590;SDS011;11973;52.098;7.582;2023-04-24T10:47:14;4.63;;;4.53;;
23590;SDS011;11973;52.098;7.582;2023-04-24T10:49:40;5.45;;;5.22;;
23590;SDS011;11973;52.098;7.582;2023-04-24T10:52:06;6.32;;;5.93;;
23590;SDS011;11973;52.098;7.582;2023-04-24T10:54:35;6.57;;;6.28;;
23590;SDS011;11973;52.098;7.582;2023-04-24T10:59:48;6.28;;;6.07;;
23590;SDS011;11973;52.098;7.582;2023-04-24T11:02:37;6.50;;;6.15;;
23590;SDS011;11973;52.098;7.582;2023-04-24T11:05:05;6.68;;;6.35;;
23590;SDS011;11973;52.098;7.582;2023-04-24T11:16:32;6.38;;;5.88;;
23590;SDS011;11973;52.098;7.582;2023-04-24T11:19:09;6.63;;;6.03;;
23590;SDS011;11973;52.098;7.582;2023-04-24T11:24:27;7.55;;;6.93;;
23590;SDS011;11973;52.098;7.582;2023-04-24T11:26:55;7.80;;;7.07;;
23590;SDS011;11973;52.098;7.582;2023-04-24T11:29:24;7.45;;;7.05;;
23590;SDS011;11973;52.098;7.582;2023-04-24T11:32:18;7.43;;;6.93;;
23590;SDS011;11973;52.098;7.582;2023-04-24T11:34:48;7.65;;;7.30;;
23590;SDS011;11973;52.098;7.582;2023-04-24T11:37:15;8.10;;;7.50;;
23590;SDS011;11973;52.098;7.582;2023-04-24T11:39:41;7.65;;;7.28;;
23590;SDS011;11973;52.098;7.582;2023-04-24T11:42:08;7.38;;;7.07;;
23590;SDS011;11973;52.098;7.582;2023-04-24T11:44:34;6.00;;;5.80;;
23590;SDS011;11973;52.098;7.582;2023-04-24T11:47:03;7.47;;;7.00;;
23590;SDS011;11973;52.098;7.582;2023-04-24T11:49:32;6.95;;;6.57;;
23590;SDS011;11973;52.098;7.582;2023-04-24T11:51:59;6.40;;;6.00;;
23590;SDS011;11973;52.098;7.582;2023-04-24T11:54:26;6.30;;;5.93;;
23590;SDS011;11973;52.098;7.582;2023-04-24T11:56:52;5.53;;;5.10;;
23590;SDS011;11973;52.098;7.582;2023-04-24T11:59:18;4.40;;;4.30;;
23590;SDS011;11973;52.098;7.582;2023-04-24T12:01:44;6.63;;;4.40;;
23590;SDS011;11973;52.098;7.582;2023-04-24T12:04:11;5.40;;;4.90;;
23590;SDS011;11973;52.098;7.582;2023-04-24T12:06:37;5.63;;;5.07;;
23590;SDS011;11973;52.098;7.582;2023-04-24T12:09:03;4.90;;;4.50;;
23590;SDS011;11973;52.098;7.582;2023-04-24T12:11:29;4.78;;;4.38;;
23590;SDS011;11973;52.098;7.582;2023-04-24T12:13:55;5.10;;;4.70;;
23590;SDS011;11973;52.098;7.582;2023-04-24T12:16:21;4.97;;;4.78;;
23590;SDS011;11973;52.098;7.582;2023-04-24T12:18:46;5.75;;;4.10;;
23590;SDS011;11973;52.098;7.582;2023-04-24T12:21:19;3.80;;;3.50;;
23590;SDS011;11973;52.098;7.582;2023-04-24T12:23:53;4.32;;;3.80;;
23590;SDS011;11973;52.098;7.582;2023-04-24T12:26:19;3.75;;;3.45;;
23590;SDS011;11973;52.098;7.582;2023-04-24T12:28:48;5.68;;;3.90;;
23590;SDS011;11973;52.098;7.582;2023-04-24T12:31:15;5.13;;;3.97;;
23590;SDS011;11973;52.098;7.582;2023-04-24T12:33:42;6.35;;;4.05;;
23590;SDS011;11973;52.098;7.582;2023-04-24T12:36:11;7.03;;;4.22;;
23590;SDS011;11973;52.098;7.582;2023-04-24T12:38:37;8.00;;;4.45;;
23590;SDS011;11973;52.098;7.582;2023-04-24T12:41:11;8.68;;;4.80;;
23590;SDS011;11973;52.098;7.582;2023-04-24T12:43:53;6.28;;;4.65;;
23590;SDS011;11973;52.098;7.582;2023-04-24T12:46:20;6.07;;;4.88;;
23590;SDS011;11973;52.098;7.582;2023-04-24T12:48:46;6.50;;;4.75;;
23590;SDS011;11973;52.098;7.582;2023-04-24T12:51:11;6.82;;;4.80;;
23590;SDS011;11973;52.098;7.582;2023-04-24T12:53:37;6.57;;;5.00;;
23590;SDS011;11973;52.098;7.582;2023-04-24T12:56:03;6.65;;;4.93;;
23590;SDS011;11973;52.098;7.582;2023-04-24T12:58:29;6.13;;;5.55;;
23590;SDS011;11973;52.098;7.582;2023-04-24T13:00:54;5.10;;;4.60;;
23590;SDS011;11973;52.098;7.582;2023-04-24T13:03:20;5.35;;;4.07;;
23590;SDS011;11973;52.098;7.582;2023-04-24T13:05:47;6.72;;;3.97;;
23590;SDS011;11973;52.098;7.582;2023-04-24T13:08:13;5.63;;;3.80;;
23590;SDS011;11973;52.098;7.582;2023-04-24T13:10:39;4.40;;;4.10;;
23590;SDS011;11973;52.098;7.582;2023-04-24T13:13:05;7.20;;;4.13;;
23590;SDS011;11973;52.098;7.582;2023-04-24T13:15:31;4.07;;;3.80;;
23590;SDS011;11973;52.098;7.582;2023-04-24T13:17:57;7.22;;;4.05;;
23590;SDS011;11973;52.098;7.582;2023-04-24T13:20:22;4.00;;;3.70;;
23590;SDS011;11973;52.098;7.582;2023-04-24T13:22:48;5.47;;;4.18;;
23590;SDS011;11973;52.098;7.582;2023-04-24T13:25:14;5.68;;;3.97;;
23590;SDS011;11973;52.098;7.582;2023-04-24T13:27:41;6.10;;;4.25;;
23590;SDS011;11973;52.098;7.582;2023-04-24T13:30:07;7.18;;;4.22;;
23590;SDS011;11973;52.098;7.582;2023-04-24T13:32:33;6.03;;;4.35;;
23590;SDS011;11973;52.098;7.582;2023-04-24T13:35:00;6.13;;;4.75;;
23590;SDS011;11973;52.098;7.582;2023-04-24T13:37:26;6.00;;;4.60;;
23590;SDS011;11973;52.098;7.582;2023-04-24T13:39:51;6.53;;;4.72;;
23590;SDS011;11973;52.098;7.582;2023-04-24T13:42:17;5.30;;;4.50;;
23590;SDS011;11973;52.098;7.582;2023-04-24T13:44:43;4.45;;;4.07;;
23590;SDS011;11973;52.098;7.582;2023-04-24T13:47:09;5.20;;;3.90;;
23590;SDS011;11973;52.098;7.582;2023-04-24T13:49:35;6.15;;;3.88;;
23590;SDS011;11973;52.098;7.582;2023-04-24T13:52:01;4.22;;;3.40;;
23590;SDS011;11973;52.098;7.582;2023-04-24T13:54:27;3.47;;;3.08;;
23590;SDS011;11973;52.098;7.582;2023-04-24T13:56:53;3.25;;;3.08;;
23590;SDS011;11973;52.098;7.582;2023-04-24T13:59:24;3.42;;;2.88;;
23590;SDS011;11973;52.098;7.582;2023-04-24T14:01:50;3.70;;;3.00;;
23590;SDS011;11973;52.098;7.582;2023-04-24T14:04:16;2.83;;;2.78;;
23590;SDS011;11973;52.098;7.582;2023-04-24T14:06:41;2.28;;;2.17;;
23590;SDS011;11973;52.098;7.582;2023-04-24T14:09:08;2.25;;;1.90;;
23590;SDS011;11973;52.098;7.582;2023-04-24T14:11:34;1.60;;;1.50;;
23590;SDS011;11973;52.098;7.582;2023-04-24T14:14:00;2.15;;;1.98;;
23590;SDS011;11973;52.098;7.582;2023-04-24T14:16:25;2.08;;;1.92;;
23590;SDS011;11973;52.098;7.582;2023-04-24T14:18:51;3.05;;;1.80;;
23590;SDS011;11973;52.098;7.582;2023-04-24T14:21:17;1.40;;;1.40;;
23590;SDS011;11973;52.098;7.582;2023-04-24T14:23:43;1.48;;;1.48;;
23590;SDS011;11973;52.098;7.582;2023-04-24T14:26:09;1.30;;;1.30;;
23590;SDS011;11973;52.098;7.582;2023-04-24T14:28:35;4.03;;;1.40;;
23590;SDS011;11973;52.098;7.582;2023-04-24T14:31:00;1.17;;;1.17;;
23590;SDS011;11973;52.098;7.582;2023-04-24T14:33:26;1.25;;;1.20;;
23590;SDS011;11973;52.098;7.582;2023-04-24T14:35:52;1.00;;;1.00;;
23590;SDS011;11973;52.098;7.582;2023-04-24T14:38:18;1.33;;;1.33;;
23590;SDS011;11973;52.098;7.582;2023-04-24T14:40:43;1.10;;;1.08;;
23590;SDS011;11973;52.098;7.582;2023-04-24T14:43:09;1.63;;;1.52;;
23590;SDS011;11973;52.098;7.582;2023-04-24T14:45:36;1.65;;;1.20;;
23590;SDS011;11973;52.098;7.582;2023-04-24T14:48:02;0.93;;;0.90;;
23590;SDS011;11973;52.098;7.582;2023-04-24T14:50:28;1.23;;;1.00;;
23590;SDS011;11973;52.098;7.582;2023-04-24T14:52:54;1.00;;;1.00;;
23590;SDS011;11973;52.098;7.582;2023-04-24T14:55:23;1.15;;;1.15;;
23590;SDS011;11973;52.098;7.582;2023-04-24T14:57:49;0.88;;;0.88;;
23590;SDS011;11973;52.098;7.582;2023-04-24T15:00:15;1.10;;;1.00;;
23590;SDS011;11973;52.098;7.582;2023-04-24T15:02:42;0.90;;;0.90;;
23590;SDS011;11973;52.098;7.582;2023-04-24T15:05:09;1.02;;;1.02;;
23590;SDS011;11973;52.098;7.582;2023-04-24T15:07:35;0.90;;;0.90;;
23590;SDS011;11973;52.098;7.582;2023-04-24T15:10:01;1.20;;;1.15;;
23590;SDS011;11973;52.098;7.582;2023-04-24T15:12:28;1.02;;;1.02;;
23590;SDS011;11973;52.098;7.582;2023-04-24T15:14:54;1.20;;;1.20;;
23590;SDS011;11973;52.098;7.582;2023-04-24T15:17:20;1.27;;;1.27;;
23590;SDS011;11973;52.098;7.582;2023-04-24T15:19:45;1.95;;;1.95;;
23590;SDS011;11973;52.098;7.582;2023-04-24T15:22:11;1.70;;;1.60;;
23590;SDS011;11973;52.098;7.582;2023-04-24T15:24:37;1.55;;;1.45;;
23590;SDS011;11973;52.098;7.582;2023-04-24T15:27:02;1.23;;;1.23;;
23590;SDS011;11973;52.098;7.582;2023-04-24T15:29:28;2.05;;;1.90;;
23590;SDS011;11973;52.098;7.582;2023-04-24T15:31:54;1.35;;;1.25;;
23590;SDS011;11973;52.098;7.582;2023-04-24T15:34:20;1.27;;;0.95;;
23590;SDS011;11973;52.098;7.582;2023-04-24T15:36:46;0.80;;;0.80;;
23590;SDS011;11973;52.098;7.582;2023-04-24T15:39:12;0.70;;;0.70;;
23590;SDS011;11973;52.098;7.582;2023-04-24T15:41:37;0.75;;;0.75;;
23590;SDS011;11973;52.098;7.582;2023-04-24T15:44:03;0.80;;;0.80;;
23590;SDS011;11973;52.098;7.582;2023-04-24T15:46:29;0.80;;;0.80;;
23590;SDS011;11973;52.098;7.582;2023-04-24T15:48:55;0.68;;;0.68;;
23590;SDS011;11973;52.098;7.582;2023-04-24T15:51:20;0.80;;;0.80;;
23590;SDS011;11973;52.098;7.582;2023-04-24T15:53:46;1.17;;;1.08;;
23590;SDS011;11973;52.098;7.582;2023-04-24T15:56:12;0.82;;;0.82;;
23590;SDS011;11973;52.098;7.582;2023-04-24T15:58:38;1.85;;;1.23;;
23590;SDS011;11973;52.098;7.582;2023-04-24T16:01:04;1.45;;;1.30;;
23590;SDS011;11973;52.098;7.582;2023-04-24T16:03:30;1.50;;;1.30;;
23590;SDS011;11973;52.098;7.582;2023-04-24T16:05:56;2.25;;;1.58;;
23590;SDS011;11973;52.098;7.582;2023-04-24T16:08:22;1.88;;;1.77;;
23590;SDS011;11973;52.098;7.582;2023-04-24T16:10:48;2.03;;;1.85;;
23590;SDS011;11973;52.098;7.582;2023-04-24T16:13:16;1.50;;;1.40;;
23590;SDS011;11973;52.098;7.582;2023-04-24T16:15:45;2.15;;;1.73;;
23590;SDS011;11973;52.098;7.582;2023-04-24T16:18:11;3.25;;;1.80;;
23590;SDS011;11973;52.098;7.582;2023-04-24T16:20:37;3.22;;;2.00;;
23590;SDS011;11973;52.098;7.582;2023-04-24T16:23:02;3.10;;;1.92;;
23590;SDS011;11973;52.098;7.582;2023-04-24T16:25:28;2.33;;;1.90;;
23590;SDS011;11973;52.098;7.582;2023-04-24T16:27:54;3.67;;;2.30;;
23590;SDS011;11973;52.098;7.582;2023-04-24T16:30:20;6.10;;;2.28;;
23590;SDS011;11973;52.098;7.582;2023-04-24T16:32:46;1.95;;;1.70;;
23590;SDS011;11973;52.098;7.582;2023-04-24T16:35:12;2.33;;;1.80;;
23590;SDS011;11973;52.098;7.582;2023-04-24T16:37:38;4.75;;;2.08;;
23590;SDS011;11973;52.098;7.582;2023-04-24T16:40:04;3.55;;;2.25;;
23590;SDS011;11973;52.098;7.582;2023-04-24T16:42:34;3.25;;;2.00;;
23590;SDS011;11973;52.098;7.582;2023-04-24T16:45:03;4.53;;;1.88;;
23590;SDS011;11973;52.098;7.582;2023-04-24T16:47:30;5.10;;;2.08;;
23590;SDS011;11973;52.098;7.582;2023-04-24T16:49:56;2.70;;;1.95;;
23590;SDS011;11973;52.098;7.582;2023-04-24T16:52:22;2.38;;;1.45;;
23590;SDS011;11973;52.098;7.582;2023-04-24T16:54:48;3.55;;;1.88;;
23590;SDS011;11973;52.098;7.582;2023-04-24T16:57:14;2.83;;;1.55;;
23590;SDS011;11973;52.098;7.582;2023-04-24T16:59:40;1.85;;;1.70;;
23590;SDS011;11973;52.098;7.582;2023-04-24T17:02:05;3.20;;;1.92;;
23590;SDS011;11973;52.098;7.582;2023-04-24T17:04:32;2.53;;;2.08;;
23590;SDS011;11973;52.098;7.582;2023-04-24T17:06:59;3.90;;;2.00;;
23590;SDS011;11973;52.098;7.582;2023-04-24T17:09:26;1.75;;;1.65;;
23590;SDS011;11973;52.098;7.582;2023-04-24T17:11:51;4.78;;;2.20;;
23590;SDS011;11973;52.098;7.582;2023-04-24T17:14:17;2.33;;;2.22;;
23590;SDS011;11973;52.098;7.582;2023-04-24T17:16:43;3.50;;;2.15;;
23590;SDS011;11973;52.098;7.582;2023-04-24T17:19:10;5.47;;;2.20;;
23590;SDS011;11973;52.098;7.582;2023-04-24T17:21:36;4.10;;;2.20;;
23590;SDS011;11973;52.098;7.582;2023-04-24T17:24:02;2.60;;;2.30;;
23590;SDS011;11973;52.098;7.582;2023-04-24T17:26:28;2.72;;;2.20;;
23590;SDS011;11973;52.098;7.582;2023-04-24T17:28:56;5.30;;;2.13;;
23590;SDS011;11973;52.098;7.582;2023-04-24T17:31:23;3.22;;;2.17;;
23590;SDS011;11973;52.098;7.582;2023-04-24T17:33:49;3.42;;;2.13;;
23590;SDS011;11973;52.098;7.582;2023-04-24T17:36:15;4.68;;;2.25;;
23590;SDS011;11973;52.098;7.582;2023-04-24T17:38:41;5.40;;;2.30;;
23590;SDS011;11973;52.098;7.582;2023-04-24T17:41:07;4.82;;;2.30;;
23590;SDS011;11973;52.098;7.582;2023-04-24T17:43:33;5.63;;;2.60;;
23590;SDS011;11973;52.098;7.582;2023-04-24T17:45:58;3.58;;;2.15;;
23590;SDS011;11973;52.098;7.582;2023-04-24T17:48:25;3.58;;;2.42;;
23590;SDS011;11973;52.098;7.582;2023-04-24T17:50:51;4.68;;;2.58;;
23590;SDS011;11973;52.098;7.582;2023-04-24T17:53:18;2.60;;;2.22;;
23590;SDS011;11973;52.098;7.582;2023-04-24T17:55:44;3.28;;;2.00;;
23590;SDS011;11973;52.098;7.582;2023-04-24T17:58:10;2.92;;;2.45;;
23590;SDS011;11973;52.098;7.582;2023-04-24T18:00:37;4.03;;;2.15;;
23590;SDS011;11973;52.098;7.582;2023-04-24T18:03:03;3.72;;;2.20;;
23590;SDS011;11973;52.098;7.582;2023-04-24T18:05:30;4.88;;;2.55;;
23590;SDS011;11973;52.098;7.582;2023-04-24T18:07:57;2.45;;;2.35;;
23590;SDS011;11973;52.098;7.582;2023-04-24T18:10:24;2.95;;;1.90;;
23590;SDS011;11973;52.098;7.582;2023-04-24T18:12:50;1.58;;;1.52;;
23590;SDS011;11973;52.098;7.582;2023-04-24T18:15:17;4.70;;;1.85;;
23590;SDS011;11973;52.098;7.582;2023-04-24T18:17:43;1.55;;;1.50;;
23590;SDS011;11973;52.098;7.582;2023-04-24T18:20:10;1.85;;;1.75;;
23590;SDS011;11973;52.098;7.582;2023-04-24T18:22:40;2.10;;;1.88;;
23590;SDS011;11973;52.098;7.582;2023-04-24T18:25:07;2.25;;;2.05;;
23590;SDS011;11973;52.098;7.582;2023-04-24T18:27:34;2.28;;;2.08;;
23590;SDS011;11973;52.098;7.582;2023-04-24T18:30:00;4.25;;;2.40;;
23590;SDS011;11973;52.098;7.582;2023-04-24T18:32:27;2.40;;;2.20;;
23590;SDS011;11973;52.098;7.582;2023-04-24T18:34:52;2.65;;;2.42;;
23590;SDS011;11973;52.098;7.582;2023-04-24T18:37:18;2.40;;;2.17;;
23590;SDS011;11973;52.098;7.582;2023-04-24T18:39:44;3.80;;;2.35;;
23590;SDS011;11973;52.098;7.582;2023-04-24T18:42:09;4.00;;;1.98;;
23590;SDS011;11973;52.098;7.582;2023-04-24T18:44:35;2.30;;;2.05;;